sensor_id;sensor_type;location;lat;lon;timestamp;P1;durP1;ratioP1;P2;durP2;ratioP2
62707;SDS011;48769;51.624;5.886;2022-09-09T00:00:49;4.28;;;2.95;;
62707;SDS011;48769;51.624;5.886;2022-09-09T00:03:26;6.53;;;2.83;;
62707;SDS011;48769;51.624;5.886;2022-09-09T00:05:58;5.13;;;3.17;;
62707;SDS011;48769;51.624;5.886;2022-09-09T00:11:36;3.83;;;2.63;;
62707;SDS011;48769;51.624;5.886;2022-09-09T00:14:10;4.47;;;3.00;;
62707;SDS011;48769;51.624;5.886;2022-09-09T00:16:43;6.10;;;2.65;;
62707;SDS011;48769;51.624;5.886;2022-09-09T00:22:24;8.40;;;2.60;;
62707;SDS011;48769;51.624;5.886;2022-09-09T00:24:53;3.38;;;2.50;;
62707;SDS011;48769;51.624;5.886;2022-09-09T00:27:25;4.72;;;2.95;;
62707;SDS011;48769;51.624;5.886;2022-09-09T00:30:12;3.75;;;2.70;;
62707;SDS011;48769;51.624;5.886;2022-09-09T00:32:47;7.10;;;2.92;;
62707;SDS011;48769;51.624;5.886;2022-09-09T00:35:37;5.65;;;3.10;;
62707;SDS011;48769;51.624;5.886;2022-09-09T00:38:12;5.78;;;3.60;;
62707;SDS011;48769;51.624;5.886;2022-09-09T00:43:31;6.70;;;3.60;;
62707;SDS011;48769;51.624;5.886;2022-09-09T00:49:00;9.43;;;3.88;;
62707;SDS011;48769;51.624;5.886;2022-09-09T00:57:29;6.07;;;4.47;;
62707;SDS011;48769;51.624;5.886;2022-09-09T01:05:20;7.57;;;4.45;;
62707;SDS011;48769;51.624;5.886;2022-09-09T01:07:49;8.45;;;3.97;;
62707;SDS011;48769;51.624;5.886;2022-09-09T01:10:22;6.25;;;4.03;;
62707;SDS011;48769;51.624;5.886;2022-09-09T01:12:58;17.33;;;4.63;;
62707;SDS011;48769;51.624;5.886;2022-09-09T01:15:28;6.53;;;4.55;;
62707;SDS011;48769;51.624;5.886;2022-09-09T01:17:58;14.35;;;4.53;;
62707;SDS011;48769;51.624;5.886;2022-09-09T01:28:22;7.45;;;4.75;;
62707;SDS011;48769;51.624;5.886;2022-09-09T01:30:51;8.20;;;4.35;;
62707;SDS011;48769;51.624;5.886;2022-09-09T01:33:17;8.27;;;4.13;;
62707;SDS011;48769;51.624;5.886;2022-09-09T01:35:54;9.20;;;4.18;;
62707;SDS011;48769;51.624;5.886;2022-09-09T01:38:25;11.57;;;4.80;;
62707;SDS011;48769;51.624;5.886;2022-09-09T01:40:52;6.78;;;4.53;;
62707;SDS011;48769;51.624;5.886;2022-09-09T01:43:21;7.55;;;4.25;;
62707;SDS011;48769;51.624;5.886;2022-09-09T01:45:49;8.10;;;4.30;;
62707;SDS011;48769;51.624;5.886;2022-09-09T01:48:17;9.48;;;4.10;;
62707;SDS011;48769;51.624;5.886;2022-09-09T01:50:45;13.68;;;4.70;;
62707;SDS011;48769;51.624;5.886;2022-09-09T01:53:11;10.75;;;4.30;;
62707;SDS011;48769;51.624;5.886;2022-09-09T01:55:39;12.43;;;4.70;;
62707;SDS011;48769;51.624;5.886;2022-09-09T01:58:13;10.38;;;4.07;;
62707;SDS011;48769;51.624;5.886;2022-09-09T02:00:44;6.72;;;4.47;;
62707;SDS011;48769;51.624;5.886;2022-09-09T02:03:27;10.07;;;4.25;;
62707;SDS011;48769;51.624;5.886;2022-09-09T02:05:57;13.95;;;4.35;;
62707;SDS011;48769;51.624;5.886;2022-09-09T02:08:42;8.00;;;4.68;;
62707;SDS011;48769;51.624;5.886;2022-09-09T02:11:21;7.90;;;4.15;;
62707;SDS011;48769;51.624;5.886;2022-09-09T02:13:48;14.57;;;4.78;;
62707;SDS011;48769;51.624;5.886;2022-09-09T02:16:19;6.47;;;3.58;;
62707;SDS011;48769;51.624;5.886;2022-09-09T02:21:23;6.07;;;4.20;;
62707;SDS011;48769;51.624;5.886;2022-09-09T02:23:53;9.30;;;4.22;;
62707;SDS011;48769;51.624;5.886;2022-09-09T02:26:22;10.50;;;4.45;;
62707;SDS011;48769;51.624;5.886;2022-09-09T02:28:50;8.80;;;4.30;;
62707;SDS011;48769;51.624;5.886;2022-09-09T02:31:18;9.00;;;4.60;;
62707;SDS011;48769;51.624;5.886;2022-09-09T02:33:48;8.75;;;4.35;;
62707;SDS011;48769;51.624;5.886;2022-09-09T02:36:18;16.88;;;4.38;;
62707;SDS011;48769;51.624;5.886;2022-09-09T02:38:46;16.08;;;4.40;;
62707;SDS011;48769;51.624;5.886;2022-09-09T02:41:22;15.77;;;5.00;;
62707;SDS011;48769;51.624;5.886;2022-09-09T02:43:51;6.07;;;4.05;;
62707;SDS011;48769;51.624;5.886;2022-09-09T02:46:23;6.65;;;3.97;;
62707;SDS011;48769;51.624;5.886;2022-09-09T02:49:09;12.18;;;5.35;;
62707;SDS011;48769;51.624;5.886;2022-09-09T02:54:27;11.90;;;4.88;;
62707;SDS011;48769;51.624;5.886;2022-09-09T02:59:26;17.25;;;5.00;;
62707;SDS011;48769;51.624;5.886;2022-09-09T03:01:52;11.48;;;5.20;;
62707;SDS011;48769;51.624;5.886;2022-09-09T03:04:18;14.13;;;5.15;;
62707;SDS011;48769;51.624;5.886;2022-09-09T03:06:43;13.98;;;6.18;;
62707;SDS011;48769;51.624;5.886;2022-09-09T03:09:09;9.88;;;5.50;;
62707;SDS011;48769;51.624;5.886;2022-09-09T03:11:36;14.68;;;5.50;;
62707;SDS011;48769;51.624;5.886;2022-09-09T03:14:02;12.23;;;5.13;;
62707;SDS011;48769;51.624;5.886;2022-09-09T03:16:28;14.90;;;5.72;;
62707;SDS011;48769;51.624;5.886;2022-09-09T03:18:53;11.65;;;5.57;;
62707;SDS011;48769;51.624;5.886;2022-09-09T03:21:19;14.73;;;5.72;;
62707;SDS011;48769;51.624;5.886;2022-09-09T03:23:44;9.43;;;5.53;;
62707;SDS011;48769;51.624;5.886;2022-09-09T03:26:10;12.73;;;5.47;;
62707;SDS011;48769;51.624;5.886;2022-09-09T03:28:35;13.00;;;6.47;;
62707;SDS011;48769;51.624;5.886;2022-09-09T03:31:04;14.40;;;6.13;;
62707;SDS011;48769;51.624;5.886;2022-09-09T03:33:30;12.23;;;6.78;;
62707;SDS011;48769;51.624;5.886;2022-09-09T03:35:56;12.85;;;6.53;;
62707;SDS011;48769;51.624;5.886;2022-09-09T03:38:23;11.82;;;6.72;;
62707;SDS011;48769;51.624;5.886;2022-09-09T03:40:50;15.65;;;6.45;;
62707;SDS011;48769;51.624;5.886;2022-09-09T03:43:27;14.80;;;6.97;;
62707;SDS011;48769;51.624;5.886;2022-09-09T03:45:54;11.48;;;6.35;;
62707;SDS011;48769;51.624;5.886;2022-09-09T03:48:23;12.93;;;7.28;;
62707;SDS011;48769;51.624;5.886;2022-09-09T03:50:50;15.50;;;7.75;;
62707;SDS011;48769;51.624;5.886;2022-09-09T03:53:18;21.38;;;7.65;;
62707;SDS011;48769;51.624;5.886;2022-09-09T03:55:45;19.13;;;7.13;;
62707;SDS011;48769;51.624;5.886;2022-09-09T03:58:12;12.65;;;6.90;;
62707;SDS011;48769;51.624;5.886;2022-09-09T04:00:43;18.88;;;6.95;;
62707;SDS011;48769;51.624;5.886;2022-09-09T04:03:17;11.43;;;7.07;;
62707;SDS011;48769;51.624;5.886;2022-09-09T04:05:42;14.75;;;6.43;;
62707;SDS011;48769;51.624;5.886;2022-09-09T04:08:08;17.10;;;6.20;;
62707;SDS011;48769;51.624;5.886;2022-09-09T04:10:34;21.00;;;7.22;;
62707;SDS011;48769;51.624;5.886;2022-09-09T04:13:02;14.65;;;6.50;;
62707;SDS011;48769;51.624;5.886;2022-09-09T04:15:30;12.90;;;6.50;;
62707;SDS011;48769;51.624;5.886;2022-09-09T04:17:56;17.58;;;6.88;;
62707;SDS011;48769;51.624;5.886;2022-09-09T04:20:23;10.88;;;6.32;;
62707;SDS011;48769;51.624;5.886;2022-09-09T04:22:49;11.27;;;6.20;;
62707;SDS011;48769;51.624;5.886;2022-09-09T04:25:14;16.00;;;6.60;;
62707;SDS011;48769;51.624;5.886;2022-09-09T04:27:40;11.65;;;6.70;;
62707;SDS011;48769;51.624;5.886;2022-09-09T04:30:05;13.60;;;7.10;;
62707;SDS011;48769;51.624;5.886;2022-09-09T04:32:33;17.95;;;8.07;;
62707;SDS011;48769;51.624;5.886;2022-09-09T04:34:58;13.25;;;6.57;;
62707;SDS011;48769;51.624;5.886;2022-09-09T04:37:24;12.45;;;6.57;;
62707;SDS011;48769;51.624;5.886;2022-09-09T04:39:49;16.65;;;6.57;;
62707;SDS011;48769;51.624;5.886;2022-09-09T04:42:15;15.88;;;6.80;;
62707;SDS011;48769;51.624;5.886;2022-09-09T04:44:42;12.55;;;6.38;;
62707;SDS011;48769;51.624;5.886;2022-09-09T04:47:08;17.63;;;6.28;;
62707;SDS011;48769;51.624;5.886;2022-09-09T04:49:34;14.07;;;5.97;;
62707;SDS011;48769;51.624;5.886;2022-09-09T04:52:00;12.77;;;6.43;;
62707;SDS011;48769;51.624;5.886;2022-09-09T04:54:26;16.42;;;5.88;;
62707;SDS011;48769;51.624;5.886;2022-09-09T04:56:52;14.55;;;5.47;;
62707;SDS011;48769;51.624;5.886;2022-09-09T04:59:17;16.88;;;6.00;;
62707;SDS011;48769;51.624;5.886;2022-09-09T05:01:43;17.50;;;6.03;;
62707;SDS011;48769;51.624;5.886;2022-09-09T05:04:08;16.90;;;6.35;;
62707;SDS011;48769;51.624;5.886;2022-09-09T05:06:34;18.50;;;6.22;;
62707;SDS011;48769;51.624;5.886;2022-09-09T05:09:01;12.18;;;5.95;;
62707;SDS011;48769;51.624;5.886;2022-09-09T05:11:27;10.73;;;4.97;;
62707;SDS011;48769;51.624;5.886;2022-09-09T05:13:55;10.45;;;5.18;;
62707;SDS011;48769;51.624;5.886;2022-09-09T05:16:21;10.75;;;5.40;;
62707;SDS011;48769;51.624;5.886;2022-09-09T05:18:47;14.02;;;5.65;;
62707;SDS011;48769;51.624;5.886;2022-09-09T05:21:15;11.98;;;5.57;;
62707;SDS011;48769;51.624;5.886;2022-09-09T05:23:41;14.98;;;4.95;;
62707;SDS011;48769;51.624;5.886;2022-09-09T05:26:09;13.55;;;5.75;;
62707;SDS011;48769;51.624;5.886;2022-09-09T05:28:38;17.08;;;5.13;;
62707;SDS011;48769;51.624;5.886;2022-09-09T05:31:04;12.93;;;4.55;;
62707;SDS011;48769;51.624;5.886;2022-09-09T05:33:36;19.20;;;5.30;;
62707;SDS011;48769;51.624;5.886;2022-09-09T05:36:05;14.52;;;4.80;;
62707;SDS011;48769;51.624;5.886;2022-09-09T05:38:33;12.40;;;5.40;;
62707;SDS011;48769;51.624;5.886;2022-09-09T05:40:59;18.08;;;4.55;;
62707;SDS011;48769;51.624;5.886;2022-09-09T05:43:25;15.30;;;4.55;;
62707;SDS011;48769;51.624;5.886;2022-09-09T05:46:04;11.85;;;4.45;;
62707;SDS011;48769;51.624;5.886;2022-09-09T05:48:31;16.05;;;4.35;;
62707;SDS011;48769;51.624;5.886;2022-09-09T05:50:59;13.48;;;4.75;;
62707;SDS011;48769;51.624;5.886;2022-09-09T05:53:25;14.73;;;4.20;;
62707;SDS011;48769;51.624;5.886;2022-09-09T05:55:58;15.35;;;5.13;;
62707;SDS011;48769;51.624;5.886;2022-09-09T05:58:31;14.15;;;4.20;;
62707;SDS011;48769;51.624;5.886;2022-09-09T06:01:00;16.65;;;4.78;;
62707;SDS011;48769;51.624;5.886;2022-09-09T06:03:37;13.52;;;5.07;;
62707;SDS011;48769;51.624;5.886;2022-09-09T06:06:04;16.30;;;5.38;;
62707;SDS011;48769;51.624;5.886;2022-09-09T06:08:31;14.25;;;4.90;;
62707;SDS011;48769;51.624;5.886;2022-09-09T06:11:03;14.23;;;4.53;;
62707;SDS011;48769;51.624;5.886;2022-09-09T06:13:31;12.23;;;4.93;;
62707;SDS011;48769;51.624;5.886;2022-09-09T06:15:56;14.02;;;5.00;;
62707;SDS011;48769;51.624;5.886;2022-09-09T06:18:23;14.55;;;4.60;;
62707;SDS011;48769;51.624;5.886;2022-09-09T06:21:02;14.55;;;4.70;;
62707;SDS011;48769;51.624;5.886;2022-09-09T06:23:30;12.07;;;4.97;;
62707;SDS011;48769;51.624;5.886;2022-09-09T06:26:03;12.60;;;4.95;;
62707;SDS011;48769;51.624;5.886;2022-09-09T06:28:34;13.88;;;5.40;;
62707;SDS011;48769;51.624;5.886;2022-09-09T06:31:01;13.70;;;5.70;;
62707;SDS011;48769;51.624;5.886;2022-09-09T06:33:32;15.07;;;5.80;;
62707;SDS011;48769;51.624;5.886;2022-09-09T06:36:04;17.40;;;6.03;;
62707;SDS011;48769;51.624;5.886;2022-09-09T06:38:30;15.18;;;6.28;;
62707;SDS011;48769;51.624;5.886;2022-09-09T06:40:55;13.02;;;5.45;;
62707;SDS011;48769;51.624;5.886;2022-09-09T06:43:23;15.52;;;6.13;;
62707;SDS011;48769;51.624;5.886;2022-09-09T06:45:59;13.30;;;5.63;;
62707;SDS011;48769;51.624;5.886;2022-09-09T06:48:26;17.27;;;5.90;;
62707;SDS011;48769;51.624;5.886;2022-09-09T06:51:14;18.48;;;5.60;;
62707;SDS011;48769;51.624;5.886;2022-09-09T06:53:41;18.50;;;6.75;;
62707;SDS011;48769;51.624;5.886;2022-09-09T06:58:35;10.15;;;4.47;;
62707;SDS011;48769;51.624;5.886;2022-09-09T07:01:05;17.42;;;4.88;;
62707;SDS011;48769;51.624;5.886;2022-09-09T07:03:31;15.98;;;5.53;;
62707;SDS011;48769;51.624;5.886;2022-09-09T07:05:57;10.80;;;4.80;;
62707;SDS011;48769;51.624;5.886;2022-09-09T07:08:24;12.93;;;5.75;;
62707;SDS011;48769;51.624;5.886;2022-09-09T07:10:50;11.80;;;4.63;;
62707;SDS011;48769;51.624;5.886;2022-09-09T07:13:18;16.55;;;5.95;;
62707;SDS011;48769;51.624;5.886;2022-09-09T07:15:53;13.90;;;5.25;;
62707;SDS011;48769;51.624;5.886;2022-09-09T07:18:19;15.18;;;4.50;;
62707;SDS011;48769;51.624;5.886;2022-09-09T07:20:54;11.05;;;5.55;;
62707;SDS011;48769;51.624;5.886;2022-09-09T07:23:21;17.27;;;5.25;;
62707;SDS011;48769;51.624;5.886;2022-09-09T07:25:47;8.95;;;4.28;;
62707;SDS011;48769;51.624;5.886;2022-09-09T07:28:13;13.27;;;3.97;;
62707;SDS011;48769;51.624;5.886;2022-09-09T07:30:39;14.35;;;4.78;;
62707;SDS011;48769;51.624;5.886;2022-09-09T07:33:08;12.55;;;4.05;;
62707;SDS011;48769;51.624;5.886;2022-09-09T07:35:34;10.98;;;3.15;;
62707;SDS011;48769;51.624;5.886;2022-09-09T07:38:03;13.98;;;3.90;;
62707;SDS011;48769;51.624;5.886;2022-09-09T07:40:32;8.40;;;2.90;;
62707;SDS011;48769;51.624;5.886;2022-09-09T07:42:58;12.25;;;3.38;;
62707;SDS011;48769;51.624;5.886;2022-09-09T07:45:24;13.18;;;3.10;;
62707;SDS011;48769;51.624;5.886;2022-09-09T07:47:49;6.22;;;3.05;;
62707;SDS011;48769;51.624;5.886;2022-09-09T07:50:15;11.15;;;3.15;;
62707;SDS011;48769;51.624;5.886;2022-09-09T07:52:40;14.68;;;3.45;;
62707;SDS011;48769;51.624;5.886;2022-09-09T07:55:06;10.65;;;3.35;;
62707;SDS011;48769;51.624;5.886;2022-09-09T07:57:31;12.38;;;3.80;;
62707;SDS011;48769;51.624;5.886;2022-09-09T07:59:57;9.05;;;3.30;;
62707;SDS011;48769;51.624;5.886;2022-09-09T08:02:25;14.23;;;3.15;;
62707;SDS011;48769;51.624;5.886;2022-09-09T08:04:53;10.25;;;3.72;;
62707;SDS011;48769;51.624;5.886;2022-09-09T08:07:18;12.70;;;4.13;;
62707;SDS011;48769;51.624;5.886;2022-09-09T08:09:44;11.45;;;3.47;;
62707;SDS011;48769;51.624;5.886;2022-09-09T08:12:10;13.00;;;3.30;;
62707;SDS011;48769;51.624;5.886;2022-09-09T08:14:37;10.57;;;3.13;;
62707;SDS011;48769;51.624;5.886;2022-09-09T08:17:05;11.30;;;3.17;;
62707;SDS011;48769;51.624;5.886;2022-09-09T08:19:30;13.95;;;3.15;;
62707;SDS011;48769;51.624;5.886;2022-09-09T08:24:56;15.82;;;3.33;;
62707;SDS011;48769;51.624;5.886;2022-09-09T08:27:22;8.57;;;3.08;;
62707;SDS011;48769;51.624;5.886;2022-09-09T08:29:47;9.20;;;2.63;;
62707;SDS011;48769;51.624;5.886;2022-09-09T08:32:27;13.70;;;2.97;;
62707;SDS011;48769;51.624;5.886;2022-09-09T08:34:52;12.02;;;2.53;;
62707;SDS011;48769;51.624;5.886;2022-09-09T08:37:17;5.38;;;2.00;;
62707;SDS011;48769;51.624;5.886;2022-09-09T08:39:44;9.57;;;2.80;;
62707;SDS011;48769;51.624;5.886;2022-09-09T08:42:18;9.93;;;2.85;;
62707;SDS011;48769;51.624;5.886;2022-09-09T08:44:59;10.38;;;2.30;;
62707;SDS011;48769;51.624;5.886;2022-09-09T08:58:25;11.77;;;2.33;;
62707;SDS011;48769;51.624;5.886;2022-09-09T09:03:38;10.80;;;3.03;;
62707;SDS011;48769;51.624;5.886;2022-09-09T09:06:26;21.75;;;3.40;;
62707;SDS011;48769;51.624;5.886;2022-09-09T09:11:53;9.10;;;2.25;;
62707;SDS011;48769;51.624;5.886;2022-09-09T09:14:26;13.10;;;3.25;;
62707;SDS011;48769;51.624;5.886;2022-09-09T09:17:02;10.57;;;2.45;;
62707;SDS011;48769;51.624;5.886;2022-09-09T09:19:32;7.65;;;1.92;;
62707;SDS011;48769;51.624;5.886;2022-09-09T09:22:01;11.63;;;2.72;;
62707;SDS011;48769;51.624;5.886;2022-09-09T09:24:54;12.60;;;2.38;;
62707;SDS011;48769;51.624;5.886;2022-09-09T09:35:18;8.40;;;2.10;;
62707;SDS011;48769;51.624;5.886;2022-09-09T09:37:43;8.45;;;2.90;;
62707;SDS011;48769;51.624;5.886;2022-09-09T09:40:10;12.75;;;2.53;;
62707;SDS011;48769;51.624;5.886;2022-09-09T09:46:04;8.15;;;2.47;;
62707;SDS011;48769;51.624;5.886;2022-09-09T09:48:41;12.68;;;2.33;;
62707;SDS011;48769;51.624;5.886;2022-09-09T09:51:11;12.35;;;2.42;;
62707;SDS011;48769;51.624;5.886;2022-09-09T09:53:40;8.32;;;2.03;;
62707;SDS011;48769;51.624;5.886;2022-09-09T09:56:08;10.50;;;2.28;;
62707;SDS011;48769;51.624;5.886;2022-09-09T10:01:26;7.90;;;2.13;;
62707;SDS011;48769;51.624;5.886;2022-09-09T10:03:57;12.30;;;2.00;;
62707;SDS011;48769;51.624;5.886;2022-09-09T10:06:34;10.15;;;2.25;;
62707;SDS011;48769;51.624;5.886;2022-09-09T10:09:23;7.07;;;1.92;;
62707;SDS011;48769;51.624;5.886;2022-09-09T10:17:18;7.95;;;2.60;;
62707;SDS011;48769;51.624;5.886;2022-09-09T10:20:14;9.55;;;2.22;;
62707;SDS011;48769;51.624;5.886;2022-09-09T10:22:56;8.27;;;2.33;;
62707;SDS011;48769;51.624;5.886;2022-09-09T10:32:21;12.35;;;3.08;;
62707;SDS011;48769;51.624;5.886;2022-09-09T10:35:12;9.50;;;2.13;;
62707;SDS011;48769;51.624;5.886;2022-09-09T10:48:40;10.73;;;2.30;;
62707;SDS011;48769;51.624;5.886;2022-09-09T10:51:21;8.02;;;1.95;;
62707;SDS011;48769;51.624;5.886;2022-09-09T10:53:57;10.18;;;2.70;;
62707;SDS011;48769;51.624;5.886;2022-09-09T10:56:28;8.65;;;2.10;;
62707;SDS011;48769;51.624;5.886;2022-09-09T10:59:06;6.22;;;2.15;;
62707;SDS011;48769;51.624;5.886;2022-09-09T11:01:47;10.77;;;2.13;;
62707;SDS011;48769;51.624;5.886;2022-09-09T11:04:32;10.65;;;2.10;;
62707;SDS011;48769;51.624;5.886;2022-09-09T11:07:05;9.10;;;3.03;;
62707;SDS011;48769;51.624;5.886;2022-09-09T11:09:35;8.50;;;2.05;;
62707;SDS011;48769;51.624;5.886;2022-09-09T11:12:07;8.75;;;2.30;;
62707;SDS011;48769;51.624;5.886;2022-09-09T11:14:40;10.38;;;2.50;;
62707;SDS011;48769;51.624;5.886;2022-09-09T11:17:10;8.35;;;2.42;;
62707;SDS011;48769;51.624;5.886;2022-09-09T11:19:40;7.80;;;2.53;;
62707;SDS011;48769;51.624;5.886;2022-09-09T11:22:15;12.85;;;3.35;;
62707;SDS011;48769;51.624;5.886;2022-09-09T11:36:16;14.80;;;4.55;;
62707;SDS011;48769;51.624;5.886;2022-09-09T11:38:58;14.07;;;4.43;;
62707;SDS011;48769;51.624;5.886;2022-09-09T11:41:39;10.55;;;4.80;;
62707;SDS011;48769;51.624;5.886;2022-09-09T11:44:10;12.70;;;4.63;;
62707;SDS011;48769;51.624;5.886;2022-09-09T11:46:37;12.75;;;5.20;;
62707;SDS011;48769;51.624;5.886;2022-09-09T11:49:05;18.35;;;4.43;;
62707;SDS011;48769;51.624;5.886;2022-09-09T11:51:32;10.80;;;3.72;;
62707;SDS011;48769;51.624;5.886;2022-09-09T11:53:59;15.18;;;4.75;;
62707;SDS011;48769;51.624;5.886;2022-09-09T11:56:48;14.82;;;4.78;;
62707;SDS011;48769;51.624;5.886;2022-09-09T11:59:19;10.90;;;4.18;;
62707;SDS011;48769;51.624;5.886;2022-09-09T12:05:02;11.15;;;3.47;;
62707;SDS011;48769;51.624;5.886;2022-09-09T12:07:56;7.47;;;3.17;;
62707;SDS011;48769;51.624;5.886;2022-09-09T12:10:25;6.13;;;2.83;;
62707;SDS011;48769;51.624;5.886;2022-09-09T12:12:54;4.68;;;2.50;;
62707;SDS011;48769;51.624;5.886;2022-09-09T12:15:21;7.95;;;4.00;;
62707;SDS011;48769;51.624;5.886;2022-09-09T12:17:50;8.85;;;4.03;;
62707;SDS011;48769;51.624;5.886;2022-09-09T12:30:41;11.77;;;4.63;;
62707;SDS011;48769;51.624;5.886;2022-09-09T12:33:13;11.80;;;5.47;;
62707;SDS011;48769;51.624;5.886;2022-09-09T12:35:43;12.18;;;5.13;;
62707;SDS011;48769;51.624;5.886;2022-09-09T12:38:15;13.40;;;5.15;;
62707;SDS011;48769;51.624;5.886;2022-09-09T12:40:54;15.32;;;5.40;;
62707;SDS011;48769;51.624;5.886;2022-09-09T12:43:21;13.82;;;5.75;;
62707;SDS011;48769;51.624;5.886;2022-09-09T12:45:48;8.95;;;5.35;;
62707;SDS011;48769;51.624;5.886;2022-09-09T12:48:21;9.57;;;4.35;;
62707;SDS011;48769;51.624;5.886;2022-09-09T12:50:54;12.57;;;4.82;;
62707;SDS011;48769;51.624;5.886;2022-09-09T12:53:30;9.27;;;4.68;;
62707;SDS011;48769;51.624;5.886;2022-09-09T12:56:07;8.32;;;4.05;;
62707;SDS011;48769;51.624;5.886;2022-09-09T12:58:44;14.70;;;5.75;;
62707;SDS011;48769;51.624;5.886;2022-09-09T13:01:18;13.60;;;4.85;;
62707;SDS011;48769;51.624;5.886;2022-09-09T13:03:47;12.10;;;4.70;;
62707;SDS011;48769;51.624;5.886;2022-09-09T13:06:16;11.05;;;3.90;;
62707;SDS011;48769;51.624;5.886;2022-09-09T13:08:47;10.27;;;3.70;;
62707;SDS011;48769;51.624;5.886;2022-09-09T13:11:14;6.82;;;3.78;;
62707;SDS011;48769;51.624;5.886;2022-09-09T13:13:50;7.32;;;4.00;;
62707;SDS011;48769;51.624;5.886;2022-09-09T13:16:30;10.00;;;3.88;;
62707;SDS011;48769;51.624;5.886;2022-09-09T13:18:59;9.43;;;3.70;;
62707;SDS011;48769;51.624;5.886;2022-09-09T13:21:34;7.75;;;3.58;;
62707;SDS011;48769;51.624;5.886;2022-09-09T13:24:04;8.02;;;3.97;;
62707;SDS011;48769;51.624;5.886;2022-09-09T13:26:32;8.75;;;3.45;;
62707;SDS011;48769;51.624;5.886;2022-09-09T13:29:14;10.13;;;3.22;;
62707;SDS011;48769;51.624;5.886;2022-09-09T13:31:44;9.10;;;3.03;;
62707;SDS011;48769;51.624;5.886;2022-09-09T13:34:10;9.88;;;2.83;;
62707;SDS011;48769;51.624;5.886;2022-09-09T13:36:58;10.57;;;3.20;;
62707;SDS011;48769;51.624;5.886;2022-09-09T13:39:27;9.05;;;2.50;;
62707;SDS011;48769;51.624;5.886;2022-09-09T13:41:52;6.60;;;2.97;;
62707;SDS011;48769;51.624;5.886;2022-09-09T13:46:58;7.57;;;2.60;;
62707;SDS011;48769;51.624;5.886;2022-09-09T13:49:29;7.05;;;2.08;;
62707;SDS011;48769;51.624;5.886;2022-09-09T13:52:14;7.03;;;2.38;;
62707;SDS011;48769;51.624;5.886;2022-09-09T13:54:42;9.70;;;2.35;;
62707;SDS011;48769;51.624;5.886;2022-09-09T13:57:15;8.15;;;2.28;;
62707;SDS011;48769;51.624;5.886;2022-09-09T13:59:43;7.38;;;2.92;;
62707;SDS011;48769;51.624;5.886;2022-09-09T14:02:09;7.50;;;2.38;;
62707;SDS011;48769;51.624;5.886;2022-09-09T14:04:34;7.82;;;2.03;;
62707;SDS011;48769;51.624;5.886;2022-09-09T14:07:00;5.90;;;2.28;;
62707;SDS011;48769;51.624;5.886;2022-09-09T14:09:26;8.93;;;2.53;;
62707;SDS011;48769;51.624;5.886;2022-09-09T14:11:52;10.57;;;2.22;;
62707;SDS011;48769;51.624;5.886;2022-09-09T14:14:17;8.07;;;2.00;;
62707;SDS011;48769;51.624;5.886;2022-09-09T14:16:42;5.75;;;2.25;;
62707;SDS011;48769;51.624;5.886;2022-09-09T14:19:08;8.10;;;1.98;;
62707;SDS011;48769;51.624;5.886;2022-09-09T14:21:34;7.10;;;1.88;;
62707;SDS011;48769;51.624;5.886;2022-09-09T14:24:00;6.63;;;2.40;;
62707;SDS011;48769;51.624;5.886;2022-09-09T14:26:25;6.63;;;2.03;;
62707;SDS011;48769;51.624;5.886;2022-09-09T14:28:51;7.95;;;2.05;;
62707;SDS011;48769;51.624;5.886;2022-09-09T14:31:17;5.90;;;2.20;;
62707;SDS011;48769;51.624;5.886;2022-09-09T14:33:46;11.32;;;2.40;;
62707;SDS011;48769;51.624;5.886;2022-09-09T14:36:11;5.18;;;1.90;;
62707;SDS011;48769;51.624;5.886;2022-09-09T14:38:38;3.72;;;2.03;;
62707;SDS011;48769;51.624;5.886;2022-09-09T14:41:05;11.23;;;2.67;;
62707;SDS011;48769;51.624;5.886;2022-09-09T14:43:38;7.60;;;2.45;;
62707;SDS011;48769;51.624;5.886;2022-09-09T14:46:07;9.07;;;3.10;;
62707;SDS011;48769;51.624;5.886;2022-09-09T14:48:35;9.25;;;2.75;;
62707;SDS011;48769;51.624;5.886;2022-09-09T14:53:37;9.45;;;2.33;;
62707;SDS011;48769;51.624;5.886;2022-09-09T14:56:07;11.00;;;3.03;;
62707;SDS011;48769;51.624;5.886;2022-09-09T14:58:38;7.38;;;2.80;;
62707;SDS011;48769;51.624;5.886;2022-09-09T15:01:08;7.50;;;2.40;;
62707;SDS011;48769;51.624;5.886;2022-09-09T15:03:38;6.32;;;2.28;;
62707;SDS011;48769;51.624;5.886;2022-09-09T15:06:05;15.48;;;2.95;;
62707;SDS011;48769;51.624;5.886;2022-09-09T15:08:33;9.65;;;2.40;;
62707;SDS011;48769;51.624;5.886;2022-09-09T15:11:03;10.88;;;2.92;;
62707;SDS011;48769;51.624;5.886;2022-09-09T15:13:30;6.13;;;2.55;;
62707;SDS011;48769;51.624;5.886;2022-09-09T15:15:56;9.77;;;2.42;;
62707;SDS011;48769;51.624;5.886;2022-09-09T15:18:27;6.60;;;2.22;;
62707;SDS011;48769;51.624;5.886;2022-09-09T15:20:54;8.40;;;2.13;;
62707;SDS011;48769;51.624;5.886;2022-09-09T15:23:19;5.03;;;2.50;;
62707;SDS011;48769;51.624;5.886;2022-09-09T15:25:54;8.82;;;2.95;;
62707;SDS011;48769;51.624;5.886;2022-09-09T15:28:21;4.93;;;2.45;;
62707;SDS011;48769;51.624;5.886;2022-09-09T15:30:48;5.80;;;2.15;;
62707;SDS011;48769;51.624;5.886;2022-09-09T15:33:15;6.72;;;2.00;;
62707;SDS011;48769;51.624;5.886;2022-09-09T15:35:40;5.70;;;2.05;;
62707;SDS011;48769;51.624;5.886;2022-09-09T15:38:06;6.80;;;2.50;;
62707;SDS011;48769;51.624;5.886;2022-09-09T15:40:31;3.80;;;1.73;;
62707;SDS011;48769;51.624;5.886;2022-09-09T15:42:57;4.57;;;1.70;;
62707;SDS011;48769;51.624;5.886;2022-09-09T15:45:23;6.45;;;1.90;;
62707;SDS011;48769;51.624;5.886;2022-09-09T15:47:49;7.15;;;2.00;;
62707;SDS011;48769;51.624;5.886;2022-09-09T15:50:14;5.60;;;2.00;;
62707;SDS011;48769;51.624;5.886;2022-09-09T15:52:40;4.03;;;1.60;;
62707;SDS011;48769;51.624;5.886;2022-09-09T15:55:06;5.60;;;2.00;;
62707;SDS011;48769;51.624;5.886;2022-09-09T15:57:33;8.00;;;1.88;;
62707;SDS011;48769;51.624;5.886;2022-09-09T15:59:59;6.25;;;2.03;;
62707;SDS011;48769;51.624;5.886;2022-09-09T16:02:26;7.10;;;2.03;;
62707;SDS011;48769;51.624;5.886;2022-09-09T16:04:51;9.02;;;2.10;;
62707;SDS011;48769;51.624;5.886;2022-09-09T16:07:17;11.98;;;2.40;;
62707;SDS011;48769;51.624;5.886;2022-09-09T16:09:43;8.75;;;1.90;;
62707;SDS011;48769;51.624;5.886;2022-09-09T16:12:08;4.65;;;0.80;;
62707;SDS011;48769;51.624;5.886;2022-09-09T16:14:38;5.10;;;1.25;;
62707;SDS011;48769;51.624;5.886;2022-09-09T16:17:04;3.72;;;0.90;;
62707;SDS011;48769;51.624;5.886;2022-09-09T16:19:30;5.03;;;0.80;;
62707;SDS011;48769;51.624;5.886;2022-09-09T16:21:57;3.55;;;0.75;;
62707;SDS011;48769;51.624;5.886;2022-09-09T16:24:23;9.60;;;0.70;;
62707;SDS011;48769;51.624;5.886;2022-09-09T16:26:52;6.70;;;0.73;;
62707;SDS011;48769;51.624;5.886;2022-09-09T16:29:19;3.22;;;0.95;;
62707;SDS011;48769;51.624;5.886;2022-09-09T16:31:46;12.25;;;1.58;;
62707;SDS011;48769;51.624;5.886;2022-09-09T16:34:13;6.60;;;1.02;;
62707;SDS011;48769;51.624;5.886;2022-09-09T16:36:40;5.10;;;0.95;;
62707;SDS011;48769;51.624;5.886;2022-09-09T16:39:09;3.17;;;1.00;;
62707;SDS011;48769;51.624;5.886;2022-09-09T16:41:37;4.93;;;1.10;;
62707;SDS011;48769;51.624;5.886;2022-09-09T16:44:04;4.15;;;1.00;;
62707;SDS011;48769;51.624;5.886;2022-09-09T16:46:32;7.95;;;1.17;;
62707;SDS011;48769;51.624;5.886;2022-09-09T16:49:00;2.25;;;1.00;;
62707;SDS011;48769;51.624;5.886;2022-09-09T16:51:27;4.55;;;1.00;;
62707;SDS011;48769;51.624;5.886;2022-09-09T16:53:57;4.40;;;1.45;;
62707;SDS011;48769;51.624;5.886;2022-09-09T16:56:26;4.20;;;1.70;;
62707;SDS011;48769;51.624;5.886;2022-09-09T16:58:53;7.20;;;1.85;;
62707;SDS011;48769;51.624;5.886;2022-09-09T17:01:20;3.92;;;1.75;;
62707;SDS011;48769;51.624;5.886;2022-09-09T17:03:53;4.38;;;1.80;;